Terminal Aerodrome Forecast
Issued by NWS Albany, NY

Home | Current Version | Previous Version | Text Only | Print | Product List | Glossary On
Versions: 1 2 3 4 5 6 7 8 9 10 11 12 13 14 15 16 17 18 19
370
FTUS41 KALY 300521
TAFPOU
TAF
KPOU 300521Z 3006/3106 00000KT P6SM FEW070 SCT250
     FM301300 03005KT P6SM SCT050 BKN100 OVC200
     FM302000 VRB03KT P6SM VCSH BKN050 OVC090
     FM310000 00000KT 6SM -SHRA BR OVC050=

USA.gov is the U.S. government's official web portal to all federal, state and local government web resources and services.